Time;durP1;ratioP1;P1;durP2;ratioP2;P2;SDS_P1;SDS_P2;PMS_P1;PMS_P2;Temp;Humidity;BMP_temperature;BMP_pressure;BME280_temperature;BME280_humidity;BME280_pressure;Samples;Min_cycle;Max_cycle;Signal;HPM_P1;HPM_P2
2021/07/24 00:00:09;;;;;;;14.20;11.60;;;17.90;99.90;;;;;;5038170;28;20468;-69
2021/07/24 00:02:37;;;;;;;12.10;10.90;;;17.90;99.90;;;;;;5037967;28;20455;-69
2021/07/24 00:05:05;;;;;;;13.23;11.47;;;17.90;99.90;;;;;;5038395;28;20492;-69
2021/07/24 00:07:32;;;;;;;12.90;11.50;;;17.90;99.90;;;;;;5037414;28;20453;-69
2021/07/24 00:09:58;;;;;;;12.30;11.00;;;17.90;99.90;;;;;;5036635;28;20862;-69
2021/07/24 00:12:25;;;;;;;11.10;10.00;;;17.80;99.90;;;;;;5038737;28;20456;-69
2021/07/24 00:14:52;;;;;;;13.37;11.80;;;17.80;99.90;;;;;;5036931;28;20484;-69
2021/07/24 00:17:18;;;;;;;13.33;11.93;;;17.80;99.90;;;;;;5039243;28;20455;-69
2021/07/24 00:19:46;;;;;;;11.67;10.47;;;17.80;99.90;;;;;;5040654;28;20451;-69
2021/07/24 00:22:13;;;;;;;14.10;11.73;;;17.80;99.90;;;;;;5039749;28;20457;-69
2021/07/24 00:24:40;;;;;;;15.30;10.80;;;17.80;99.90;;;;;;5039731;28;21006;-69
2021/07/24 00:27:08;;;;;;;13.80;11.47;;;17.80;99.90;;;;;;5035712;28;20471;-69
2021/07/24 00:29:35;;;;;;;12.63;11.33;;;17.70;99.90;;;;;;5030098;28;20534;-69
2021/07/24 00:32:02;;;;;;;11.70;10.50;;;17.70;99.90;;;;;;5030314;28;20978;-69
2021/07/24 00:34:29;;;;;;;12.63;11.13;;;17.70;99.90;;;;;;5030601;28;21022;-69
2021/07/24 00:36:58;;;;;;;13.27;11.23;;;17.70;99.90;;;;;;5030109;28;20460;-69
2021/07/24 00:39:25;;;;;;;12.20;10.87;;;17.70;99.90;;;;;;5029892;28;20466;-69
2021/07/24 00:42:02;;;;;;;11.93;10.67;;;17.70;99.90;;;;;;5030060;28;20460;-69
2021/07/24 00:44:29;;;;;;;12.53;11.17;;;17.70;99.90;;;;;;5029901;28;21018;-69
2021/07/24 00:46:58;;;;;;;12.30;11.00;;;17.60;99.90;;;;;;5029867;28;20460;-69
2021/07/24 00:49:26;;;;;;;13.53;11.17;;;17.60;99.90;;;;;;5029621;28;20464;-69
2021/07/24 00:51:55;;;;;;;13.00;11.70;;;17.60;99.90;;;;;;5030106;28;20847;-69
2021/07/24 00:54:23;;;;;;;13.37;12.03;;;17.50;99.90;;;;;;5030042;28;20476;-69
2021/07/24 00:56:51;;;;;;;14.47;12.63;;;17.50;99.90;;;;;;5030025;28;20971;-69
2021/07/24 00:59:17;;;;;;;13.10;11.67;;;17.50;99.90;;;;;;5029376;28;20464;-69
2021/07/24 01:01:46;;;;;;;12.77;11.47;;;17.50;99.90;;;;;;5030098;28;20465;-69
2021/07/24 01:04:12;;;;;;;11.93;10.73;;;17.50;99.90;;;;;;5029711;28;20503;-69
2021/07/24 01:06:40;;;;;;;13.57;11.27;;;17.50;99.90;;;;;;5029829;28;20899;-69
2021/07/24 01:09:06;;;;;;;13.33;12.03;;;17.50;99.90;;;;;;5029464;28;20472;-69
2021/07/24 01:11:36;;;;;;;13.00;11.40;;;17.50;99.90;;;;;;5028705;28;20484;-69
2021/07/24 01:14:03;;;;;;;13.17;11.77;;;17.40;99.90;;;;;;5029515;28;20460;-69
2021/07/24 01:16:30;;;;;;;11.87;10.53;;;17.40;99.90;;;;;;5029552;28;20471;-69
2021/07/24 01:18:56;;;;;;;13.50;11.23;;;17.40;99.90;;;;;;5029487;28;20464;-69
2021/07/24 01:21:26;;;;;;;12.27;10.97;;;17.40;99.90;;;;;;5029205;28;20471;-69
2021/07/24 01:23:52;;;;;;;13.17;11.87;;;17.40;99.90;;;;;;5029215;28;21046;-69
2021/07/24 01:26:24;;;;;;;13.30;11.90;;;17.40;99.90;;;;;;5029460;28;20476;-69
2021/07/24 01:28:51;;;;;;;13.17;11.80;;;17.40;99.90;;;;;;5029359;28;20535;-69
2021/07/24 01:31:18;;;;;;;12.33;11.03;;;17.30;99.90;;;;;;5029117;28;20527;-69
2021/07/24 01:33:45;;;;;;;11.90;10.70;;;17.30;99.90;;;;;;5029028;28;20460;-69
2021/07/24 01:36:12;;;;;;;12.70;11.40;;;17.30;99.90;;;;;;5028914;28;20461;-69
2021/07/24 01:38:41;;;;;;;12.43;11.13;;;17.30;99.90;;;;;;5027834;28;20944;-69
2021/07/24 01:41:08;;;;;;;12.70;10.90;;;17.30;99.90;;;;;;5028553;28;20471;-69
2021/07/24 01:43:35;;;;;;;12.90;11.20;;;17.30;99.90;;;;;;5029345;28;20460;-69
2021/07/24 01:46:03;;;;;;;12.40;11.10;;;17.20;99.90;;;;;;5028871;28;20480;-69
2021/07/24 01:48:35;;;;;;;12.80;11.47;;;17.20;99.90;;;;;;5029521;28;20461;-69
2021/07/24 01:53:49;;;;;;;11.37;10.27;;;17.20;99.90;;;;;;5029146;28;20451;-69
2021/07/24 01:56:16;;;;;;;11.70;10.50;;;17.20;99.90;;;;;;5028810;28;20462;-69
2021/07/24 01:58:43;;;;;;;11.80;10.63;;;17.20;99.90;;;;;;5029345;28;20911;-69
2021/07/24 02:01:12;;;;;;;12.33;10.97;;;17.10;99.90;;;;;;5028533;28;20987;-69
2021/07/24 02:03:42;;;;;;;12.17;10.90;;;17.10;99.90;;;;;;5029096;28;20464;-69
2021/07/24 02:06:11;;;;;;;11.30;10.20;;;17.10;99.90;;;;;;5028969;28;20967;-69
2021/07/24 02:08:39;;;;;;;12.37;11.07;;;17.10;99.90;;;;;;5028926;28;20476;-69
2021/07/24 02:11:07;;;;;;;13.37;10.03;;;17.10;99.90;;;;;;5028258;28;20484;-69
2021/07/24 02:13:34;;;;;;;12.30;11.00;;;17.10;99.90;;;;;;5028983;28;20464;-69
2021/07/24 02:16:01;;;;;;;11.13;10.03;;;17.20;99.90;;;;;;5028841;28;20484;-69
2021/07/24 02:18:29;;;;;;;11.00;9.87;;;17.20;99.90;;;;;;5029232;28;20460;-69
2021/07/24 02:20:56;;;;;;;12.27;10.40;;;17.20;99.90;;;;;;5028361;28;20465;-69
2021/07/24 02:23:23;;;;;;;12.50;10.87;;;17.20;99.90;;;;;;5032547;28;20460;-69
2021/07/24 02:25:49;;;;;;;12.27;10.00;;;17.20;99.90;;;;;;5032635;28;20476;-69
2021/07/24 02:28:18;;;;;;;11.13;10.03;;;17.20;99.90;;;;;;5032939;28;20467;-69
2021/07/24 02:30:45;;;;;;;12.13;10.93;;;17.20;99.90;;;;;;5032210;28;20488;-69
2021/07/24 02:33:11;;;;;;;12.00;10.13;;;17.20;99.90;;;;;;5032640;28;20460;-68
2021/07/24 02:35:38;;;;;;;11.37;10.17;;;17.20;99.90;;;;;;5032640;28;20479;-68
2021/07/24 02:38:06;;;;;;;11.43;10.20;;;17.20;99.90;;;;;;5032205;28;20456;-68
2021/07/24 02:40:32;;;;;;;12.80;11.50;;;17.20;99.90;;;;;;5032182;28;20575;-68
2021/07/24 02:42:59;;;;;;;12.30;10.87;;;17.30;99.90;;;;;;5032326;28;20475;-68
2021/07/24 02:45:27;;;;;;;13.07;11.13;;;17.30;99.90;;;;;;5032427;28;20566;-68
2021/07/24 02:47:54;;;;;;;13.00;10.50;;;17.30;99.90;;;;;;5032294;28;20459;-68
2021/07/24 02:50:21;;;;;;;12.40;10.30;;;17.30;99.90;;;;;;5031938;28;20488;-68
2021/07/24 02:52:48;;;;;;;11.87;10.67;;;17.30;99.90;;;;;;5032290;28;20460;-68
2021/07/24 02:55:15;;;;;;;12.23;10.10;;;17.30;99.90;;;;;;5032169;28;20487;-68
2021/07/24 02:57:42;;;;;;;11.53;10.33;;;17.30;99.90;;;;;;5032315;28;20952;-68
2021/07/24 03:00:10;;;;;;;12.33;11.00;;;17.30;99.90;;;;;;5031506;28;20460;-68
2021/07/24 03:02:38;;;;;;;12.50;10.80;;;17.30;99.90;;;;;;5032239;28;20547;-68
2021/07/24 03:05:05;;;;;;;11.80;9.90;;;17.30;99.90;;;;;;5031834;28;20496;-68
2021/07/24 03:07:32;;;;;;;12.90;11.70;;;17.30;99.90;;;;;;5032208;28;20464;-68
2021/07/24 03:09:58;;;;;;;12.10;10.97;;;17.30;99.90;;;;;;5031099;28;20472;-68
2021/07/24 03:12:25;;;;;;;11.63;10.43;;;17.30;99.90;;;;;;5032153;28;20964;-68
2021/07/24 03:14:53;;;;;;;12.27;10.37;;;17.30;99.90;;;;;;5031919;28;20487;-68
2021/07/24 03:17:20;;;;;;;12.03;10.83;;;17.30;99.90;;;;;;5031877;28;20460;-68
2021/07/24 03:19:48;;;;;;;10.50;9.40;;;17.30;99.90;;;;;;5031555;28;20464;-68
2021/07/24 03:22:15;;;;;;;12.30;10.13;;;17.30;99.90;;;;;;5031669;28;20461;-68
2021/07/24 03:24:42;;;;;;;11.93;10.60;;;17.30;99.90;;;;;;5031777;28;20496;-68
2021/07/24 03:27:09;;;;;;;11.83;10.63;;;17.30;99.90;;;;;;5031508;28;20482;-68
2021/07/24 03:29:35;;;;;;;12.13;10.67;;;17.30;99.90;;;;;;5031373;28;20846;-68
2021/07/24 03:32:02;;;;;;;12.77;10.57;;;17.30;99.90;;;;;;5031382;28;20488;-68
2021/07/24 03:34:29;;;;;;;11.83;10.67;;;17.30;99.90;;;;;;5030601;28;20480;-68
2021/07/24 03:36:57;;;;;;;11.53;10.10;;;17.30;99.90;;;;;;5031413;28;20464;-68
2021/07/24 03:39:23;;;;;;;12.60;10.37;;;17.30;99.90;;;;;;5030972;28;20468;-68
2021/07/24 03:41:50;;;;;;;11.77;9.43;;;17.30;99.90;;;;;;5031361;28;20463;-68
2021/07/24 03:44:17;;;;;;;15.33;10.97;;;17.30;99.90;;;;;;5031180;28;20487;-68
2021/07/24 03:46:43;;;;;;;11.50;10.50;;;17.30;99.90;;;;;;5031532;28;20547;-68
2021/07/24 03:49:10;;;;;;;12.30;10.23;;;17.30;99.90;;;;;;5030644;28;20460;-68
2021/07/24 03:51:39;;;;;;;13.33;11.03;;;17.30;99.90;;;;;;5031143;28;20887;-68
2021/07/24 03:54:07;;;;;;;12.40;10.30;;;17.30;99.90;;;;;;5031108;28;20464;-68
2021/07/24 03:56:34;;;;;;;11.37;10.23;;;17.30;99.90;;;;;;5031142;28;20836;-68
2021/07/24 03:59:01;;;;;;;11.07;9.93;;;17.30;99.90;;;;;;5031168;28;20500;-68
2021/07/24 04:01:29;;;;;;;12.00;10.47;;;17.30;99.90;;;;;;5030897;28;20468;-68
2021/07/24 04:03:55;;;;;;;12.03;9.87;;;17.30;99.90;;;;;;5030930;28;20491;-68
2021/07/24 04:06:24;;;;;;;11.50;10.30;;;17.30;99.90;;;;;;5031096;28;20467;-68
2021/07/24 04:08:53;;;;;;;11.77;10.50;;;17.30;99.90;;;;;;5028843;28;21033;-68
2021/07/24 04:11:22;;;;;;;12.93;10.40;;;17.30;99.90;;;;;;5028583;28;20491;-68
2021/07/24 04:13:49;;;;;;;13.53;10.07;;;17.30;99.90;;;;;;5029593;28;20467;-68
2021/07/24 04:16:16;;;;;;;13.00;10.77;;;17.30;99.90;;;;;;5030144;28;20468;-68
2021/07/24 04:18:43;;;;;;;12.53;11.23;;;17.30;99.90;;;;;;5030359;28;20464;-68
2021/07/24 04:21:10;;;;;;;13.73;11.67;;;17.40;99.90;;;;;;5029544;28;20460;-68
2021/07/24 04:23:36;;;;;;;10.83;9.80;;;17.40;99.90;;;;;;5030630;28;20467;-68
2021/07/24 04:26:03;;;;;;;11.73;10.43;;;17.40;99.90;;;;;;5030485;28;20480;-68
2021/07/24 04:28:31;;;;;;;13.80;11.13;;;17.40;99.90;;;;;;5030826;28;20468;-68
2021/07/24 04:30:58;;;;;;;11.93;10.40;;;17.40;99.90;;;;;;5029735;28;20480;-68
2021/07/24 04:33:24;;;;;;;11.40;10.30;;;17.50;99.90;;;;;;5030655;28;20464;-68
2021/07/24 04:35:51;;;;;;;13.20;10.63;;;17.50;99.90;;;;;;5030170;28;20484;-68
2021/07/24 04:38:18;;;;;;;13.70;10.20;;;17.50;99.90;;;;;;5030600;28;20464;-68
2021/07/24 04:40:45;;;;;;;11.40;10.30;;;17.50;99.90;;;;;;5029897;28;20457;-68
2021/07/24 04:43:13;;;;;;;11.67;10.47;;;17.50;99.90;;;;;;5030138;28;21022;-68
2021/07/24 04:45:43;;;;;;;11.37;10.20;;;17.50;99.90;;;;;;5030117;28;20576;-68
2021/07/24 04:48:10;;;;;;;12.47;11.17;;;17.50;99.90;;;;;;5030087;28;20492;-68
2021/07/24 04:50:41;;;;;;;12.57;11.20;;;17.50;99.90;;;;;;5029356;28;20468;-68
2021/07/24 04:53:08;;;;;;;11.67;10.33;;;17.50;99.90;;;;;;5030011;28;20460;-68
2021/07/24 04:55:37;;;;;;;12.60;10.90;;;17.50;99.90;;;;;;5030164;28;20503;-68
2021/07/24 04:58:05;;;;;;;11.93;10.73;;;17.50;99.90;;;;;;5030063;28;20456;-68
2021/07/24 05:00:32;;;;;;;12.73;11.17;;;17.50;99.90;;;;;;5029510;28;20967;-68
2021/07/24 05:03:00;;;;;;;12.47;11.20;;;17.50;99.90;;;;;;5030072;28;20547;-68
2021/07/24 05:05:27;;;;;;;13.07;10.40;;;17.60;99.90;;;;;;5029738;28;20891;-68
2021/07/24 05:07:54;;;;;;;12.13;10.30;;;17.60;99.90;;;;;;5029630;28;20475;-68
2021/07/24 05:10:20;;;;;;;12.33;10.80;;;17.60;99.90;;;;;;5029330;28;20464;-68
2021/07/24 05:12:47;;;;;;;10.93;9.47;;;17.60;99.90;;;;;;5029842;28;20491;-68
2021/07/24 05:15:14;;;;;;;11.23;10.10;;;17.60;99.90;;;;;;5029947;28;20857;-68
2021/07/24 05:17:41;;;;;;;10.80;9.70;;;17.60;99.90;;;;;;5029734;28;20483;-68
2021/07/24 05:20:10;;;;;;;12.03;10.73;;;17.60;99.90;;;;;;5029219;28;20460;-68
2021/07/24 05:22:37;;;;;;;13.17;10.30;;;17.60;99.90;;;;;;5030056;28;20463;-68
2021/07/24 05:25:04;;;;;;;11.20;10.10;;;17.60;99.90;;;;;;5029648;28;20487;-68
2021/07/24 05:27:30;;;;;;;11.83;10.53;;;17.70;99.90;;;;;;5029731;28;20460;-68
2021/07/24 05:29:57;;;;;;;10.87;9.77;;;17.80;99.90;;;;;;5028986;28;20467;-68
2021/07/24 05:32:24;;;;;;;12.50;11.20;;;17.90;99.90;;;;;;5029671;28;20491;-68
2021/07/24 05:34:51;;;;;;;10.90;9.80;;;18.00;99.90;;;;;;5029396;28;20484;-68
2021/07/24 05:37:19;;;;;;;14.20;9.97;;;18.10;99.90;;;;;;5111033;22;20526;-74
2021/07/24 05:39:46;;;;;;;11.23;10.13;;;18.10;99.90;;;;;;5046992;28;20832;-75
2021/07/24 05:42:13;;;;;;;11.77;10.53;;;18.20;99.90;;;;;;5049007;28;20462;-75
2021/07/24 05:44:39;;;;;;;11.27;10.07;;;18.30;99.90;;;;;;5048733;28;20475;-74
2021/07/24 05:47:06;;;;;;;11.80;10.33;;;18.40;99.90;;;;;;5049009;28;20451;-74
2021/07/24 05:49:35;;;;;;;13.43;10.50;;;18.60;99.90;;;;;;5048680;28;20460;-75
2021/07/24 05:52:02;;;;;;;11.77;10.43;;;18.60;99.90;;;;;;5049196;28;20483;-74
2021/07/24 05:54:30;;;;;;;12.90;10.93;;;18.70;99.90;;;;;;5048881;28;20487;-75
2021/07/24 05:56:56;;;;;;;16.97;11.23;;;18.80;99.90;;;;;;5048558;28;20455;-74
2021/07/24 05:59:23;;;;;;;18.37;10.80;;;18.90;99.90;;;;;;5048690;28;20475;-74
2021/07/24 06:01:50;;;;;;;14.80;10.60;;;19.00;99.90;;;;;;5048856;28;20464;-73
2021/07/24 06:04:16;;;;;;;11.70;10.07;;;19.00;99.90;;;;;;5048741;28;20483;-74
2021/07/24 06:06:43;;;;;;;11.50;10.33;;;19.10;99.90;;;;;;5048993;28;20463;-74
2021/07/24 06:09:10;;;;;;;13.00;11.20;;;19.20;99.90;;;;;;5048390;28;20990;-74
2021/07/24 06:11:38;;;;;;;12.50;10.70;;;19.20;99.90;;;;;;5049075;28;20849;-74
2021/07/24 06:14:04;;;;;;;13.43;10.53;;;19.20;99.90;;;;;;5049132;28;20467;-74
2021/07/24 06:16:31;;;;;;;11.50;10.10;;;19.20;99.90;;;;;;5049057;28;20467;-74
2021/07/24 06:19:00;;;;;;;11.87;10.63;;;19.30;99.90;;;;;;5049243;28;20471;-74
2021/07/24 06:21:27;;;;;;;11.40;9.87;;;19.30;99.90;;;;;;5048851;28;20456;-74
2021/07/24 06:23:53;;;;;;;12.13;10.70;;;19.30;99.90;;;;;;5048650;28;20491;-74
2021/07/24 06:26:20;;;;;;;11.23;9.80;;;19.30;99.90;;;;;;5049322;28;20459;-74
2021/07/24 06:28:48;;;;;;;12.70;10.60;;;19.30;99.90;;;;;;5048861;28;20955;-74
2021/07/24 06:31:15;;;;;;;10.30;9.20;;;19.40;99.90;;;;;;5048633;28;20962;-74
2021/07/24 06:33:41;;;;;;;12.63;10.23;;;19.40;99.90;;;;;;5048650;28;20463;-74
2021/07/24 06:36:08;;;;;;;16.97;10.33;;;19.40;99.90;;;;;;5049374;28;20483;-74
2021/07/24 06:38:35;;;;;;;11.60;10.27;;;19.50;99.90;;;;;;5049458;28;20471;-73
2021/07/24 06:41:06;;;;;;;11.47;10.27;;;19.50;99.90;;;;;;5062727;28;21063;-74
2021/07/24 06:43:32;;;;;;;13.37;11.97;;;19.50;99.90;;;;;;5068635;28;20830;-72
2021/07/24 06:46:09;;;;;;;12.03;10.83;;;19.60;99.90;;;;;;5068752;28;20486;-72
2021/07/24 06:48:36;;;;;;;11.00;9.90;;;19.70;99.90;;;;;;5068787;28;20962;-72
2021/07/24 06:51:02;;;;;;;14.33;10.53;;;19.70;99.90;;;;;;5069070;28;20466;-73
2021/07/24 06:53:29;;;;;;;11.93;10.73;;;19.80;99.90;;;;;;5069324;28;20493;-73
2021/07/24 06:55:56;;;;;;;11.43;10.13;;;19.80;99.90;;;;;;5068956;28;20489;-72
2021/07/24 06:58:23;;;;;;;11.97;10.50;;;19.90;99.90;;;;;;5069531;28;20494;-73
2021/07/24 07:00:50;;;;;;;11.77;10.57;;;19.90;99.90;;;;;;5068732;28;20987;-73
2021/07/24 07:03:18;;;;;;;11.83;9.90;;;20.00;99.90;;;;;;5069449;28;20465;-73
2021/07/24 07:05:45;;;;;;;11.40;10.40;;;20.10;99.90;;;;;;5059064;28;20471;-72
2021/07/24 07:08:11;;;;;;;11.20;10.10;;;20.10;99.90;;;;;;5050142;28;20455;-73
2021/07/24 07:10:38;;;;;;;11.10;10.00;;;20.20;99.90;;;;;;5052727;28;20459;-71
2021/07/24 07:13:05;;;;;;;11.37;10.27;;;20.20;99.90;;;;;;5053275;28;20569;-72
2021/07/24 07:15:31;;;;;;;12.83;11.43;;;20.30;99.90;;;;;;5053224;28;20490;-73
2021/07/24 07:17:58;;;;;;;12.10;10.83;;;20.30;99.90;;;;;;5053270;28;20928;-73
2021/07/24 07:20:26;;;;;;;13.77;11.00;;;20.30;99.90;;;;;;5052985;28;20459;-73
2021/07/24 07:22:53;;;;;;;15.07;10.37;;;20.30;99.90;;;;;;5053119;28;20466;-73
2021/07/24 07:25:20;;;;;;;12.80;10.23;;;20.30;99.90;;;;;;5052977;28;20479;-72
2021/07/24 07:27:46;;;;;;;11.83;10.30;;;20.30;99.90;;;;;;5052439;28;20463;-73
2021/07/24 07:30:14;;;;;;;11.10;10.00;;;20.30;99.90;;;;;;5052028;28;20477;-74
2021/07/24 07:32:41;;;;;;;13.67;11.07;;;20.30;99.90;;;;;;5052290;28;21029;-73
2021/07/24 07:35:08;;;;;;;11.60;10.40;;;20.30;99.90;;;;;;5052356;28;20479;-73
2021/07/24 07:37:46;;;;;;;11.20;10.10;;;20.30;99.90;;;;;;5051741;28;20500;-72
2021/07/24 07:40:14;;;;;;;11.70;10.50;;;20.40;99.90;;;;;;5051582;28;20459;-72
2021/07/24 07:42:40;;;;;;;13.43;11.20;;;20.40;99.90;;;;;;5051440;28;20467;-72
2021/07/24 07:45:08;;;;;;;11.67;10.47;;;20.40;99.90;;;;;;5051217;28;20494;-73
2021/07/24 07:47:37;;;;;;;12.60;11.27;;;20.40;99.90;;;;;;5051820;28;20475;-72
2021/07/24 07:50:04;;;;;;;12.23;10.90;;;20.30;99.90;;;;;;5050744;28;20463;-73
2021/07/24 07:52:31;;;;;;;10.93;9.93;;;20.30;99.90;;;;;;5051179;28;20483;-72
2021/07/24 07:54:59;;;;;;;11.20;10.00;;;20.20;99.90;;;;;;5050832;28;20846;-72
2021/07/24 07:57:26;;;;;;;13.30;10.87;;;20.20;99.90;;;;;;5051124;28;20459;-72
2021/07/24 07:59:53;;;;;;;11.50;10.40;;;20.20;99.90;;;;;;5050650;28;20460;-72
2021/07/24 08:02:20;;;;;;;13.23;10.23;;;20.20;99.90;;;;;;5051026;28;20470;-73
2021/07/24 08:04:47;;;;;;;15.00;12.17;;;20.20;99.90;;;;;;5050706;28;20483;-73
2021/07/24 08:07:14;;;;;;;12.10;10.80;;;20.10;99.90;;;;;;5050924;28;20529;-72
2021/07/24 08:09:41;;;;;;;12.57;11.23;;;20.10;99.90;;;;;;5050478;28;20559;-72
2021/07/24 08:12:09;;;;;;;12.50;10.73;;;20.20;99.90;;;;;;5051136;28;20883;-72
2021/07/24 08:14:36;;;;;;;11.83;10.60;;;20.20;99.90;;;;;;5050455;28;20486;-72
2021/07/24 08:17:03;;;;;;;12.43;11.10;;;20.20;99.90;;;;;;5050807;28;21140;-71
2021/07/24 08:19:29;;;;;;;11.83;10.63;;;20.20;99.90;;;;;;5049892;28;20479;-72
2021/07/24 08:21:56;;;;;;;14.13;11.87;;;20.20;99.90;;;;;;5050532;28;21009;-72
2021/07/24 08:24:23;;;;;;;12.00;10.80;;;20.20;99.90;;;;;;5048054;28;20943;-72
2021/07/24 08:26:49;;;;;;;12.13;10.40;;;20.20;99.90;;;;;;5049985;28;20475;-71
2021/07/24 08:29:18;;;;;;;12.80;11.33;;;20.20;99.90;;;;;;5048646;28;20470;-72
2021/07/24 08:31:45;;;;;;;11.20;10.10;;;20.30;99.90;;;;;;5067254;28;20458;-72
2021/07/24 08:34:12;;;;;;;16.10;12.00;;;20.30;99.90;;;;;;5069959;28;20482;-72
2021/07/24 08:36:38;;;;;;;14.20;11.90;;;20.30;99.90;;;;;;5070263;28;20465;-73
2021/07/24 08:39:05;;;;;;;14.37;12.50;;;20.40;99.90;;;;;;5069954;28;20466;-73
2021/07/24 08:41:32;;;;;;;13.80;12.40;;;20.50;99.90;;;;;;5070005;28;20458;-73
2021/07/24 08:43:59;;;;;;;17.33;11.03;;;20.50;99.90;;;;;;5069480;28;20957;-73
2021/07/24 08:46:27;;;;;;;12.57;10.90;;;20.60;99.90;;;;;;5069751;28;20471;-73
2021/07/24 08:48:54;;;;;;;12.87;11.57;;;20.70;99.90;;;;;;5069800;28;20458;-73
2021/07/24 08:51:23;;;;;;;13.20;11.60;;;20.80;99.90;;;;;;5069465;28;20466;-74
2021/07/24 08:53:49;;;;;;;13.40;12.10;;;20.90;99.90;;;;;;5055715;28;20994;-71
2021/07/24 08:56:23;;;;;;;13.03;11.63;;;21.00;99.90;;;;;;5049790;28;20464;-73
2021/07/24 08:58:53;;;;;;;13.80;11.90;;;21.10;99.90;;;;;;5051678;28;20471;-72
2021/07/24 09:01:21;;;;;;;16.57;12.27;;;21.10;99.90;;;;;;5049551;28;21384;-73
2021/07/24 09:03:50;;;;;;;13.97;12.10;;;21.20;99.90;;;;;;5048655;28;20573;-72
2021/07/24 09:06:21;;;;;;;13.10;11.70;;;21.30;99.90;;;;;;5049309;28;20810;-73
2021/07/24 09:08:50;;;;;;;15.07;12.53;;;21.40;99.90;;;;;;5049418;28;20471;-71
2021/07/24 09:11:17;;;;;;;17.60;13.07;;;21.50;99.90;;;;;;5048756;28;20459;-72
2021/07/24 09:13:44;;;;;;;14.20;11.50;;;21.60;99.90;;;;;;5048216;28;20494;-73
2021/07/24 09:16:11;;;;;;;16.60;11.33;;;21.80;99.90;;;;;;5065196;28;20488;-73
2021/07/24 09:18:38;;;;;;;13.77;12.17;;;21.80;99.90;;;;;;5048872;28;20958;-73
2021/07/24 09:21:06;;;;;;;13.67;11.83;;;21.90;99.90;;;;;;5048735;28;20528;-72
2021/07/24 09:23:36;;;;;;;12.43;11.13;;;22.00;99.90;;;;;;5048738;28;20462;-72
2021/07/24 09:26:04;;;;;;;15.17;12.23;;;22.10;99.90;;;;;;5048997;28;20483;-73
2021/07/24 09:28:31;;;;;;;12.90;11.50;;;22.20;99.90;;;;;;5046397;28;20498;-72
2021/07/24 09:30:58;;;;;;;14.33;10.80;;;22.40;99.90;;;;;;5061771;28;20988;-74
2021/07/24 09:33:25;;;;;;;13.57;12.00;;;22.50;99.90;;;;;;5068631;28;20490;-74
2021/07/24 09:35:53;;;;;;;14.57;11.83;;;22.70;99.90;;;;;;5057815;28;20490;-74
2021/07/24 09:38:29;;;;;;;11.63;10.43;;;22.90;99.90;;;;;;5058565;28;20467;-74
2021/07/24 09:40:57;;;;;;;13.60;10.60;;;23.10;99.90;;;;;;5059577;28;20469;-75
2021/07/24 09:43:35;;;;;;;11.00;9.90;;;23.20;99.90;;;;;;5068591;28;20455;-75
2021/07/24 09:46:13;;;;;;;11.60;10.40;;;23.20;99.90;;;;;;5068463;28;20481;-75
2021/07/24 09:48:40;;;;;;;14.50;11.43;;;23.30;99.90;;;;;;5068160;28;20450;-74
2021/07/24 09:51:07;;;;;;;12.83;10.83;;;23.30;99.90;;;;;;5068343;28;20461;-75
2021/07/24 09:53:40;;;;;;;13.50;11.13;;;23.30;99.90;;;;;;5068240;28;20509;-75
2021/07/24 09:56:11;;;;;;;12.50;11.20;;;23.40;99.90;;;;;;5059250;28;20508;-74
2021/07/24 09:58:39;;;;;;;10.83;9.73;;;23.60;99.90;;;;;;5047728;28;20459;-75
2021/07/24 10:01:07;;;;;;;11.83;10.30;;;23.80;99.90;;;;;;5047601;28;20812;-74
2021/07/24 10:03:36;;;;;;;13.03;10.73;;;23.90;99.90;;;;;;5047604;28;20482;-74
2021/07/24 10:06:10;;;;;;;12.20;10.50;;;24.10;99.90;;;;;;5047723;28;20986;-75
2021/07/24 10:08:40;;;;;;;13.33;10.10;;;24.20;99.90;;;;;;5047104;28;20497;-74
2021/07/24 10:11:07;;;;;;;11.00;9.57;;;24.20;99.90;;;;;;5048780;28;20470;-75
2021/07/24 10:13:34;;;;;;;10.40;8.93;;;24.30;99.90;;;;;;5048712;28;20490;-75
2021/07/24 10:16:02;;;;;;;10.07;8.47;;;24.30;99.90;;;;;;5049103;28;20497;-75
2021/07/24 10:18:29;;;;;;;10.97;9.87;;;24.40;99.90;;;;;;5049027;28;21006;-75
2021/07/24 10:20:56;;;;;;;9.53;8.50;;;24.50;99.90;;;;;;5048503;28;20459;-75
2021/07/24 10:23:24;;;;;;;10.13;7.60;;;24.60;99.90;;;;;;5049300;28;20958;-75
2021/07/24 10:26:00;;;;;;;10.30;7.80;;;24.60;99.90;;;;;;5048109;28;20521;-75
2021/07/24 10:28:32;;;;;;;8.60;7.70;;;24.70;99.90;;;;;;5048571;28;20553;-75
2021/07/24 10:31:08;;;;;;;9.63;7.50;;;24.70;99.90;;;;;;5048056;28;20455;-75
2021/07/24 10:33:36;;;;;;;9.30;7.20;;;24.80;99.90;;;;;;5048303;28;20482;-75
2021/07/24 10:36:16;;;;;;;8.13;6.47;;;24.90;99.90;;;;;;5048400;28;20488;-75
2021/07/24 10:39:00;;;;;;;9.20;7.20;;;24.90;99.90;;;;;;5048170;28;20474;-75
2021/07/24 10:41:42;;;;;;;8.10;7.10;;;24.90;99.90;;;;;;5047739;28;20851;-75
2021/07/24 10:44:10;;;;;;;7.90;6.80;;;24.80;99.90;;;;;;5051320;28;20475;-75
2021/07/24 10:47:11;;;;;;;7.43;6.63;;;24.70;99.90;;;;;;5051323;28;20981;-75
2021/07/24 10:50:01;;;;;;;8.27;7.30;;;24.80;99.90;;;;;;5051184;28;20462;-75
2021/07/24 10:53:11;;;;;;;8.10;6.80;;;24.90;99.90;;;;;;5052140;28;20459;-74
2021/07/24 10:55:39;;;;;;;7.67;6.87;;;25.20;99.90;;;;;;5051018;28;20843;-75
2021/07/24 10:58:07;;;;;;;11.30;6.50;;;25.30;99.90;;;;;;5051224;28;20466;-75
2021/07/24 11:00:40;;;;;;;9.23;5.90;;;25.30;99.90;;;;;;5050947;28;21181;-74
2021/07/24 11:03:31;;;;;;;6.83;6.13;;;25.20;99.90;;;;;;5051657;28;20492;-74
2021/07/24 11:05:58;;;;;;;7.33;5.73;;;25.10;99.90;;;;;;5051498;28;20490;-74
2021/07/24 11:08:58;;;;;;;8.13;5.60;;;25.10;99.90;;;;;;5052632;28;20459;-74
2021/07/24 11:11:36;;;;;;;7.73;6.90;;;25.10;99.90;;;;;;5051192;28;20459;-74
2021/07/24 11:14:04;;;;;;;8.30;6.30;;;25.10;99.90;;;;;;5051618;28;21047;-74
2021/07/24 11:17:04;;;;;;;7.30;6.40;;;25.00;99.90;;;;;;5051640;28;20467;-74
2021/07/24 11:19:31;;;;;;;8.27;6.77;;;24.90;99.90;;;;;;5049404;28;20470;-74
2021/07/24 11:22:12;;;;;;;8.17;6.20;;;24.90;99.90;;;;;;5048523;28;20470;-74
2021/07/24 11:24:40;;;;;;;7.13;6.40;;;24.70;99.90;;;;;;5052574;28;20485;-75
2021/07/24 11:27:07;;;;;;;7.27;6.50;;;24.70;99.90;;;;;;5050940;28;20976;-74
2021/07/24 11:29:35;;;;;;;7.13;6.30;;;24.70;99.90;;;;;;5050077;28;20467;-75
2021/07/24 11:32:03;;;;;;;7.57;6.50;;;24.50;99.90;;;;;;5049104;28;20554;-75
2021/07/24 11:34:31;;;;;;;8.00;6.87;;;24.50;99.90;;;;;;5048814;28;20491;-75
2021/07/24 11:36:58;;;;;;;7.10;6.07;;;24.40;99.90;;;;;;5047570;28;20635;-74
2021/07/24 11:39:26;;;;;;;9.77;6.57;;;24.40;99.90;;;;;;5119638;22;20831;-67
2021/07/24 11:41:53;;;;;;;7.17;6.43;;;24.30;99.90;;;;;;5050268;28;20459;-67
2021/07/24 11:44:25;;;;;;;11.20;7.10;;;24.20;99.90;;;;;;5050939;28;20475;-68
2021/07/24 11:47:00;;;;;;;7.10;6.50;;;24.20;99.90;;;;;;5050744;28;20462;-67
2021/07/24 11:49:27;;;;;;;7.10;6.40;;;24.20;99.90;;;;;;5050001;28;20482;-68
2021/07/24 11:51:55;;;;;;;7.37;6.67;;;24.20;99.90;;;;;;5050693;28;20462;-67
2021/07/24 11:54:32;;;;;;;9.80;7.10;;;24.20;99.90;;;;;;5050023;28;20526;-67
2021/07/24 11:57:00;;;;;;;7.53;6.73;;;24.20;99.90;;;;;;5050382;28;20463;-68
2021/07/24 11:59:28;;;;;;;7.83;7.07;;;24.30;99.90;;;;;;5050208;28;20459;-68
2021/07/24 12:01:55;;;;;;;8.27;6.73;;;24.40;99.90;;;;;;5037511;28;20492;-67
2021/07/24 12:04:23;;;;;;;8.83;7.90;;;24.50;99.90;;;;;;5030495;28;20476;-69
2021/07/24 12:06:56;;;;;;;8.40;6.70;;;24.70;99.90;;;;;;5030310;28;20947;-67
2021/07/24 12:09:24;;;;;;;9.07;8.20;;;25.00;99.90;;;;;;5029630;28;20468;-67
2021/07/24 12:11:54;;;;;;;8.57;6.47;;;25.30;99.90;;;;;;5030102;28;20467;-68
2021/07/24 12:14:23;;;;;;;8.90;7.77;;;25.40;99.90;;;;;;5030313;28;20574;-69
2021/07/24 12:17:03;;;;;;;9.03;7.30;;;25.40;99.90;;;;;;5030181;28;20802;-66
2021/07/24 12:19:36;;;;;;;7.67;6.97;;;25.50;99.90;;;;;;5029916;28;20471;-68
2021/07/24 12:22:13;;;;;;;7.93;7.23;;;25.40;99.90;;;;;;5029121;28;20468;-68
2021/07/24 12:24:40;;;;;;;8.03;7.00;;;25.50;99.90;;;;;;5030136;28;21011;-67
2021/07/24 12:27:09;;;;;;;8.50;7.60;;;25.30;99.90;;;;;;5029648;28;20468;-67
2021/07/24 12:29:53;;;;;;;8.67;7.30;;;25.40;99.90;;;;;;5029926;28;20464;-67
2021/07/24 12:32:21;;;;;;;9.57;8.00;;;25.40;99.90;;;;;;5030381;28;21037;-68
2021/07/24 12:34:49;;;;;;;7.03;6.30;;;25.60;99.90;;;;;;5028646;28;20488;-68
2021/07/24 12:37:33;;;;;;;8.00;7.07;;;25.80;99.90;;;;;;5030151;28;20587;-68
2021/07/24 12:40:14;;;;;;;8.53;7.67;;;25.90;99.90;;;;;;5028654;28;20468;-68